createdAt,value
2022-08-21T00:00:03.890Z,21.32
2022-08-21T00:02:50.218Z,21.27
2022-08-21T00:05:20.056Z,21.17
2022-08-21T00:07:50.860Z,21.17
2022-08-21T00:10:22.185Z,21.17
2022-08-21T00:12:54.090Z,21.21
2022-08-21T00:15:28.394Z,21.25
2022-08-21T00:17:59.997Z,21.32
2022-08-21T00:20:30.875Z,21.34
2022-08-21T00:23:02.036Z,21.34
2022-08-21T00:25:32.881Z,21.35
2022-08-21T00:28:03.910Z,21.36
2022-08-21T00:30:35.877Z,21.36
2022-08-21T00:33:05.596Z,21.37
2022-08-21T00:35:38.916Z,21.38
2022-08-21T00:38:10.538Z,21.38
2022-08-21T00:40:45.692Z,21.38
2022-08-21T00:43:20.346Z,21.37
2022-08-21T00:45:51.668Z,21.36
2022-08-21T00:48:23.204Z,21.32
2022-08-21T00:50:57.747Z,21.36
2022-08-21T00:53:29.325Z,21.37
2022-08-21T00:56:03.310Z,21.40
2022-08-21T00:58:36.869Z,21.39
2022-08-21T01:01:10.340Z,21.38
2022-08-21T01:03:45.310Z,21.37
2022-08-21T01:06:16.352Z,21.36
2022-08-21T01:08:47.872Z,21.37
2022-08-21T01:11:19.157Z,21.29
2022-08-21T01:13:52.786Z,21.20
2022-08-21T01:16:24.949Z,21.17
2022-08-21T01:18:55.650Z,21.15
2022-08-21T01:21:29.991Z,21.13
2022-08-21T01:24:00.996Z,21.15
2022-08-21T01:26:35.577Z,21.12
2022-08-21T01:29:15.018Z,20.97
2022-08-21T01:31:47.066Z,20.87
2022-08-21T01:34:17.002Z,20.83
2022-08-21T01:36:49.049Z,20.85
2022-08-21T01:39:19.789Z,20.87
2022-08-21T01:41:50.463Z,20.80
2022-08-21T01:44:24.322Z,20.80
2022-08-21T01:46:57.116Z,20.84
2022-08-21T01:49:28.675Z,20.87
2022-08-21T01:51:59.593Z,20.93
2022-08-21T01:54:31.048Z,20.99
2022-08-21T01:57:02.353Z,21.05
2022-08-21T01:59:34.703Z,21.09
2022-08-21T02:02:05.493Z,21.10
2022-08-21T02:04:36.286Z,21.09
2022-08-21T02:07:08.510Z,21.09
2022-08-21T02:09:43.150Z,21.10
2022-08-21T02:12:14.521Z,21.12
2022-08-21T02:14:45.268Z,21.13
2022-08-21T02:17:16.110Z,21.10
2022-08-21T02:19:46.808Z,21.08
2022-08-21T02:22:17.658Z,21.07
2022-08-21T02:24:53.781Z,20.99
2022-08-21T02:27:28.768Z,20.92
2022-08-21T02:30:00.833Z,20.92
2022-08-21T02:32:32.226Z,20.93
2022-08-21T02:35:02.879Z,20.95
2022-08-21T02:37:33.834Z,20.98
2022-08-21T02:40:05.515Z,21.02
2022-08-21T02:42:36.373Z,21.05
2022-08-21T02:45:08.414Z,21.04
2022-08-21T02:47:37.968Z,21.02
2022-08-21T02:50:10.464Z,20.97
2022-08-21T02:52:41.356Z,20.87
2022-08-21T02:55:12.240Z,20.91
2022-08-21T02:57:42.924Z,20.91
2022-08-21T03:00:15.913Z,20.93
2022-08-21T03:02:47.566Z,20.94
2022-08-21T03:05:20.002Z,20.95
2022-08-21T03:07:52.372Z,20.92
2022-08-21T03:10:23.990Z,20.89
2022-08-21T03:12:55.402Z,20.89
2022-08-21T03:15:27.597Z,20.92
2022-08-21T03:17:58.556Z,20.94
2022-08-21T03:20:33.346Z,20.96
2022-08-21T03:23:06.217Z,20.97
2022-08-21T03:25:44.380Z,20.96
2022-08-21T03:28:18.724Z,20.95
2022-08-21T03:30:51.844Z,20.85
2022-08-21T03:33:23.703Z,20.60
2022-08-21T03:35:58.952Z,20.33
2022-08-21T03:38:31.552Z,20.22
2022-08-21T03:41:03.248Z,20.26
2022-08-21T03:43:34.604Z,20.36
2022-08-21T03:46:07.164Z,20.38
2022-08-21T03:48:41.087Z,20.46
2022-08-21T03:51:11.832Z,20.57
2022-08-21T03:53:42.444Z,20.64
2022-08-21T03:56:13.552Z,20.55
2022-08-21T03:58:45.134Z,20.51
2022-08-21T04:01:15.846Z,20.50
2022-08-21T04:03:46.680Z,20.57
2022-08-21T04:06:17.644Z,20.61
2022-08-21T04:08:48.407Z,20.63
2022-08-21T04:11:19.101Z,20.60
2022-08-21T04:13:50.346Z,20.61
2022-08-21T04:16:21.560Z,20.68
2022-08-21T04:18:52.252Z,20.71
2022-08-21T04:21:24.229Z,20.70
2022-08-21T04:23:57.443Z,20.74
2022-08-21T04:26:28.660Z,20.80
2022-08-21T04:28:59.422Z,20.83
2022-08-21T04:31:30.310Z,20.83
2022-08-21T04:34:01.210Z,20.78
2022-08-21T04:36:32.306Z,20.79
2022-08-21T04:39:03.452Z,20.78
2022-08-21T04:41:34.259Z,20.79
2022-08-21T04:44:05.789Z,20.80
2022-08-21T04:46:36.509Z,20.83
2022-08-21T04:49:07.323Z,20.79
2022-08-21T04:51:41.280Z,20.70
2022-08-21T04:54:16.730Z,20.60
2022-08-21T04:56:51.608Z,20.60
2022-08-21T04:59:26.493Z,20.70
2022-08-21T05:01:58.784Z,20.81
2022-08-21T05:04:34.795Z,20.89
2022-08-21T05:07:09.779Z,20.96
2022-08-21T05:09:41.089Z,20.99
2022-08-21T05:12:12.596Z,21.01
2022-08-21T05:14:43.918Z,21.04
2022-08-21T05:17:14.768Z,21.08
2022-08-21T05:19:45.438Z,21.10
2022-08-21T05:22:23.256Z,21.10
2022-08-21T05:24:54.434Z,21.04
2022-08-21T05:27:25.457Z,21.00
2022-08-21T05:29:58.662Z,20.99
2022-08-21T05:32:29.881Z,21.07
2022-08-21T05:35:01.366Z,21.11
2022-08-21T05:37:32.260Z,21.08
2022-08-21T05:40:21.753Z,21.03
2022-08-21T05:42:55.414Z,21.05
2022-08-21T05:45:43.418Z,21.12
2022-08-21T05:48:17.593Z,21.17
2022-08-21T05:50:51.037Z,21.15
2022-08-21T05:53:23.562Z,21.17
2022-08-21T05:55:54.685Z,21.19
2022-08-21T05:58:25.615Z,21.18
2022-08-21T06:00:56.334Z,21.23
2022-08-21T06:03:29.535Z,21.31
2022-08-21T06:06:00.621Z,21.36
2022-08-21T06:08:32.188Z,21.36
2022-08-21T06:11:04.353Z,21.32
2022-08-21T06:13:35.690Z,21.34
2022-08-21T06:16:10.497Z,21.39
2022-08-21T06:18:42.687Z,21.45
2022-08-21T06:21:14.455Z,21.48
2022-08-21T06:23:45.716Z,21.47
2022-08-21T06:26:17.102Z,21.46
2022-08-21T06:28:47.777Z,21.45
2022-08-21T06:31:22.140Z,21.44
2022-08-21T06:33:53.557Z,21.47
2022-08-21T06:36:24.334Z,21.47
2022-08-21T06:38:55.041Z,21.51
2022-08-21T06:41:29.252Z,21.55
2022-08-21T06:44:00.939Z,21.62
2022-08-21T06:46:33.168Z,21.68
2022-08-21T06:49:04.294Z,21.75
2022-08-21T06:51:37.172Z,21.79
2022-08-21T06:54:08.164Z,21.83
2022-08-21T06:56:39.295Z,21.86
2022-08-21T06:59:10.013Z,21.90
2022-08-21T07:01:40.865Z,21.89
2022-08-21T07:04:11.644Z,21.86
2022-08-21T07:06:42.365Z,21.85
2022-08-21T07:09:13.177Z,21.83
2022-08-21T07:11:47.606Z,21.85
2022-08-21T07:14:20.317Z,21.93
2022-08-21T07:16:52.381Z,21.98
2022-08-21T07:19:23.037Z,22.06
2022-08-21T07:21:54.949Z,22.13
2022-08-21T07:24:24.097Z,22.19
2022-08-21T07:26:55.130Z,22.17
2022-08-21T07:29:25.997Z,22.14
2022-08-21T07:31:56.860Z,22.08
2022-08-21T07:34:27.569Z,22.03
2022-08-21T07:36:58.936Z,22.10
2022-08-21T07:39:29.624Z,22.16
2022-08-21T07:42:02.942Z,22.22
2022-08-21T07:44:36.463Z,22.30
2022-08-21T07:47:07.731Z,22.35
2022-08-21T07:49:38.578Z,22.41
2022-08-21T07:52:09.954Z,22.47
2022-08-21T07:54:40.649Z,22.48
2022-08-21T07:57:11.297Z,22.47
2022-08-21T07:59:41.975Z,22.47
2022-08-21T08:02:23.197Z,22.49
2022-08-21T08:04:54.188Z,22.52
2022-08-21T08:07:24.813Z,22.51
2022-08-21T08:09:55.477Z,22.58
2022-08-21T08:12:30.150Z,22.67
2022-08-21T08:15:02.375Z,22.76
2022-08-21T08:17:33.538Z,22.81
2022-08-21T08:20:04.919Z,22.86
2022-08-21T08:22:38.481Z,22.89
2022-08-21T08:25:11.628Z,22.93
2022-08-21T08:27:43.094Z,22.99
2022-08-21T08:30:17.290Z,23.08
2022-08-21T08:32:48.468Z,23.14
2022-08-21T08:35:24.372Z,23.23
2022-08-21T08:37:56.067Z,23.30
2022-08-21T08:40:36.797Z,23.36
2022-08-21T08:43:09.967Z,23.44
2022-08-21T08:45:51.202Z,23.52
2022-08-21T08:48:41.415Z,23.60
2022-08-21T08:51:21.670Z,23.64
2022-08-21T08:54:00.137Z,23.69
2022-08-21T08:56:34.664Z,23.75
2022-08-21T08:59:14.083Z,23.80
2022-08-21T09:01:45.286Z,23.82
2022-08-21T09:04:19.801Z,23.81
2022-08-21T09:07:10.481Z,23.78
2022-08-21T09:09:58.531Z,23.80
2022-08-21T09:12:49.389Z,23.83
2022-08-21T09:15:31.631Z,23.87
2022-08-21T09:18:26.676Z,23.88
2022-08-21T09:21:18.008Z,23.83
2022-08-21T09:23:56.752Z,23.81
2022-08-21T09:26:33.824Z,23.86
2022-08-21T09:29:03.775Z,23.90
2022-08-21T09:31:38.455Z,23.78
2022-08-21T09:34:12.427Z,23.68
2022-08-21T09:36:47.158Z,23.69
2022-08-21T09:39:28.651Z,23.72
2022-08-21T09:42:06.378Z,23.78
2022-08-21T09:44:40.867Z,23.82
2022-08-21T09:47:13.771Z,23.84
2022-08-21T09:49:45.762Z,23.86
2022-08-21T09:52:23.255Z,23.90
2022-08-21T09:54:57.189Z,23.95
2022-08-21T09:57:46.264Z,23.95
2022-08-21T10:00:28.337Z,23.93
2022-08-21T10:03:12.040Z,23.93
2022-08-21T10:05:52.199Z,23.92
2022-08-21T10:08:25.293Z,23.85
2022-08-21T10:11:03.313Z,23.78
2022-08-21T10:13:46.080Z,23.70
2022-08-21T10:16:28.973Z,23.63
2022-08-21T10:19:13.995Z,23.56
2022-08-21T10:21:57.145Z,23.43
2022-08-21T10:24:33.404Z,23.37
2022-08-21T10:27:17.683Z,23.36
2022-08-21T10:29:57.163Z,23.44
2022-08-21T10:32:39.696Z,23.50
2022-08-21T10:35:19.990Z,23.50
2022-08-21T10:38:03.825Z,23.57
2022-08-21T10:40:37.353Z,23.62
2022-08-21T10:43:31.004Z,23.73
2022-08-21T10:46:11.118Z,23.85
2022-08-21T10:48:49.016Z,23.95
2022-08-21T10:51:29.494Z,24.00
2022-08-21T10:54:07.454Z,24.03
2022-08-21T10:56:38.699Z,24.00
2022-08-21T10:59:26.787Z,23.98
2022-08-21T11:02:04.146Z,23.94
2022-08-21T11:04:49.469Z,23.97
2022-08-21T11:07:32.243Z,24.02
2022-08-21T11:10:10.348Z,24.06
2022-08-21T11:12:47.065Z,24.14
2022-08-21T11:15:31.047Z,24.18
2022-08-21T11:18:17.488Z,24.29
2022-08-21T11:20:53.982Z,24.35
2022-08-21T11:23:30.310Z,24.46
2022-08-21T11:26:09.465Z,24.57
2022-08-21T11:28:47.493Z,24.69
2022-08-21T11:31:32.932Z,24.82
2022-08-21T11:34:16.999Z,24.96
2022-08-21T11:36:53.944Z,25.01
2022-08-21T11:39:33.112Z,25.01
2022-08-21T11:42:16.116Z,25.11
2022-08-21T11:44:56.638Z,25.22
2022-08-21T11:47:42.550Z,25.33
2022-08-21T11:50:35.066Z,25.43
2022-08-21T11:53:15.576Z,25.49
2022-08-21T11:55:51.114Z,25.57
2022-08-21T11:58:27.885Z,25.63
2022-08-21T12:01:02.759Z,25.73
2022-08-21T12:03:35.808Z,25.83
2022-08-21T12:06:10.555Z,25.92
2022-08-21T12:08:43.533Z,25.93
2022-08-21T12:11:30.964Z,25.92
2022-08-21T12:14:14.571Z,25.86
2022-08-21T12:16:48.033Z,25.90
2022-08-21T12:19:33.461Z,25.88
2022-08-21T12:22:13.823Z,25.90
2022-08-21T12:24:47.603Z,25.98
2022-08-21T12:27:27.144Z,26.07
2022-08-21T12:30:01.269Z,26.04
2022-08-21T12:32:45.146Z,26.02
2022-08-21T12:35:24.853Z,26.03
2022-08-21T12:38:03.856Z,26.03
2022-08-21T12:40:41.177Z,26.08
2022-08-21T12:43:20.068Z,26.12
2022-08-21T12:45:53.515Z,26.04
2022-08-21T12:48:28.383Z,25.97
2022-08-21T12:51:08.675Z,25.92
2022-08-21T12:53:46.675Z,25.87
2022-08-21T12:56:20.792Z,25.81
2022-08-21T12:58:53.935Z,25.73
2022-08-21T13:01:29.868Z,25.69
2022-08-21T13:04:05.227Z,25.60
2022-08-21T13:06:43.006Z,25.51
2022-08-21T13:09:15.976Z,25.38
2022-08-21T13:11:49.859Z,25.31
2022-08-21T13:14:27.168Z,25.33
2022-08-21T13:16:59.780Z,25.29
2022-08-21T13:19:32.628Z,25.24
2022-08-21T13:22:34.619Z,25.16
2022-08-21T13:24:55.964Z,25.02
2022-08-21T13:27:29.786Z,24.92
2022-08-21T13:30:12.124Z,24.87
2022-08-21T13:32:46.316Z,24.80
2022-08-21T13:35:20.528Z,24.76
2022-08-21T13:37:53.225Z,24.74
2022-08-21T13:40:30.086Z,24.71
2022-08-21T13:43:02.257Z,24.68
2022-08-21T13:45:34.927Z,24.65
2022-08-21T13:48:07.395Z,24.61
2022-08-21T13:50:40.548Z,24.56
2022-08-21T13:53:25.540Z,24.54
2022-08-21T13:56:00.553Z,24.54
2022-08-21T13:58:43.933Z,24.51
2022-08-21T14:01:23.580Z,24.50
2022-08-21T14:03:59.047Z,24.53
2022-08-21T14:06:36.352Z,24.48
2022-08-21T14:09:13.378Z,24.45
2022-08-21T14:11:44.227Z,24.45
2022-08-21T14:14:22.905Z,24.45
2022-08-21T14:16:59.602Z,24.47
2022-08-21T14:19:41.195Z,24.43
2022-08-21T14:22:44.400Z,24.37
2022-08-21T14:25:28.959Z,24.35
2022-08-21T14:28:17.705Z,24.34
2022-08-21T14:30:51.491Z,24.36
2022-08-21T14:33:29.694Z,24.40
2022-08-21T14:36:01.932Z,24.42
2022-08-21T14:38:33.384Z,24.47
2022-08-21T14:41:13.855Z,24.43
2022-08-21T14:43:45.393Z,24.43
2022-08-21T14:46:22.460Z,24.43
2022-08-21T14:48:53.143Z,24.47
2022-08-21T14:51:23.833Z,24.49
2022-08-21T14:53:54.573Z,24.50
2022-08-21T14:56:26.801Z,24.55
2022-08-21T14:59:02.458Z,24.65
2022-08-21T15:01:34.327Z,24.75
2022-08-21T15:04:06.037Z,24.83
2022-08-21T15:06:36.803Z,24.86
2022-08-21T15:09:07.859Z,24.85
2022-08-21T15:11:42.574Z,24.84
2022-08-21T15:14:18.760Z,24.77
2022-08-21T15:16:50.493Z,24.72
2022-08-21T15:19:21.875Z,24.71
2022-08-21T15:21:52.808Z,24.70
2022-08-21T15:24:23.788Z,24.65
2022-08-21T15:26:56.077Z,24.59
2022-08-21T15:29:33.289Z,24.59
2022-08-21T15:32:17.363Z,24.56
2022-08-21T15:34:48.667Z,24.48
2022-08-21T15:37:19.606Z,24.42
2022-08-21T15:39:54.187Z,24.41
2022-08-21T15:42:27.687Z,24.41
2022-08-21T15:44:59.754Z,24.37
2022-08-21T15:47:36.742Z,24.36
2022-08-21T15:50:11.957Z,24.35
2022-08-21T15:52:43.071Z,24.36
2022-08-21T15:55:14.627Z,24.36
2022-08-21T15:57:58.110Z,24.36
2022-08-21T16:00:32.089Z,24.35
2022-08-21T16:03:05.031Z,24.31
2022-08-21T16:05:36.189Z,24.26
2022-08-21T16:08:07.074Z,24.20
2022-08-21T16:10:38.925Z,24.12
2022-08-21T16:13:09.561Z,24.07
2022-08-21T16:15:41.320Z,23.98
2022-08-21T16:18:12.463Z,23.87
2022-08-21T16:20:46.121Z,23.79
2022-08-21T16:23:17.501Z,23.72
2022-08-21T16:26:02.957Z,23.67
2022-08-21T16:29:06.539Z,23.60
2022-08-21T16:31:39.536Z,23.53
2022-08-21T16:34:18.879Z,23.43
2022-08-21T16:36:49.732Z,23.36
2022-08-21T16:39:20.804Z,23.28
2022-08-21T16:41:52.107Z,23.23
2022-08-21T16:44:24.665Z,23.19
2022-08-21T16:46:56.060Z,23.14
2022-08-21T16:49:26.932Z,23.09
2022-08-21T16:51:57.834Z,23.06
2022-08-21T16:54:30.880Z,23.03
2022-08-21T16:57:02.729Z,23.01
2022-08-21T16:59:33.685Z,23.00
2022-08-21T17:02:04.956Z,23.00
2022-08-21T17:04:35.896Z,22.98
2022-08-21T17:07:06.863Z,22.95
2022-08-21T17:09:37.723Z,22.93
2022-08-21T17:12:09.503Z,22.92
2022-08-21T17:14:38.817Z,22.91
2022-08-21T17:17:11.747Z,22.88
2022-08-21T17:19:48.212Z,22.87
2022-08-21T17:22:19.301Z,22.83
2022-08-21T17:24:50.148Z,22.81
2022-08-21T17:27:50.857Z,22.76
2022-08-21T17:30:23.402Z,22.70
2022-08-21T17:33:14.141Z,22.66
2022-08-21T17:35:52.142Z,22.57
2022-08-21T17:38:24.613Z,22.51
2022-08-21T17:41:00.085Z,22.50
2022-08-21T17:43:32.540Z,22.45
2022-08-21T17:46:04.498Z,22.40
2022-08-21T17:48:39.123Z,22.36
2022-08-21T17:51:11.824Z,22.33
2022-08-21T17:53:42.871Z,22.27
2022-08-21T17:56:16.277Z,22.20
2022-08-21T17:58:51.021Z,22.15
2022-08-21T18:01:22.752Z,22.11
2022-08-21T18:03:53.595Z,22.06
2022-08-21T18:06:25.790Z,22.02
2022-08-21T18:08:58.079Z,21.95
2022-08-21T18:11:31.800Z,21.89
2022-08-21T18:14:07.648Z,21.86
2022-08-21T18:16:40.125Z,21.84
2022-08-21T18:19:16.145Z,21.82
2022-08-21T18:21:48.131Z,21.81
2022-08-21T18:24:17.703Z,21.80
2022-08-21T18:26:49.101Z,21.79
2022-08-21T18:29:22.226Z,21.77
2022-08-21T18:31:52.960Z,21.70
2022-08-21T18:34:28.900Z,21.53
2022-08-21T18:36:59.897Z,21.33
2022-08-21T18:39:36.763Z,21.15
2022-08-21T18:42:13.416Z,20.98
2022-08-21T18:44:47.667Z,20.83
2022-08-21T18:47:27.044Z,20.67
2022-08-21T18:49:58.110Z,20.53
2022-08-21T18:52:29.404Z,20.41
2022-08-21T18:55:05.998Z,20.31
2022-08-21T18:57:45.846Z,20.19
2022-08-21T19:00:21.207Z,20.08
2022-08-21T19:02:52.237Z,20.00
2022-08-21T19:05:25.366Z,19.91
2022-08-21T19:07:57.813Z,19.82
2022-08-21T19:10:30.576Z,19.75
2022-08-21T19:13:04.094Z,19.69
2022-08-21T19:15:40.008Z,19.63
2022-08-21T19:18:14.328Z,19.57
2022-08-21T19:20:47.446Z,19.49
2022-08-21T19:23:19.628Z,19.40
2022-08-21T19:26:03.131Z,19.26
2022-08-21T19:28:37.069Z,19.16
2022-08-21T19:31:16.371Z,19.11
2022-08-21T19:33:53.332Z,19.04
2022-08-21T19:36:26.208Z,18.93
2022-08-21T19:38:57.065Z,18.84
2022-08-21T19:41:31.932Z,18.78
2022-08-21T19:44:07.093Z,18.76
2022-08-21T19:46:42.025Z,18.71
2022-08-21T19:49:22.414Z,18.67
2022-08-21T19:51:54.460Z,18.63
2022-08-21T19:54:26.615Z,18.60
2022-08-21T19:57:04.717Z,18.57
2022-08-21T19:59:36.904Z,18.53
2022-08-21T20:02:06.839Z,18.51
2022-08-21T20:04:37.964Z,18.62
2022-08-21T20:07:09.652Z,18.92
2022-08-21T20:09:45.336Z,19.18
2022-08-21T20:12:21.277Z,19.26
2022-08-21T20:14:53.268Z,19.32
2022-08-21T20:17:25.190Z,19.32
2022-08-21T20:19:59.165Z,19.37
2022-08-21T20:22:33.945Z,19.29
2022-08-21T20:25:05.389Z,19.20
2022-08-21T20:27:40.525Z,19.08
2022-08-21T20:30:13.995Z,19.16
2022-08-21T20:32:44.838Z,19.22
2022-08-21T20:35:16.681Z,19.39
2022-08-21T20:40:38.284Z,19.82
2022-08-21T20:43:12.849Z,19.98
2022-08-21T20:45:44.377Z,20.08
2022-08-21T20:48:19.262Z,20.16
2022-08-21T20:51:08.707Z,20.15
2022-08-21T20:53:50.667Z,20.01
2022-08-21T20:56:33.577Z,19.88
2022-08-21T20:59:16.455Z,19.86
2022-08-21T21:01:52.814Z,19.91
2022-08-21T21:04:34.625Z,19.96
2022-08-21T21:07:09.058Z,20.00
2022-08-21T21:09:44.032Z,20.04
2022-08-21T21:12:27.662Z,20.07
2022-08-21T21:14:59.717Z,20.04
2022-08-21T21:17:36.029Z,19.83
2022-08-21T21:20:16.976Z,19.70
2022-08-21T21:22:51.804Z,19.68
2022-08-21T21:25:40.088Z,19.67
2022-08-21T21:28:16.309Z,19.70
2022-08-21T21:30:51.944Z,19.71
2022-08-21T21:33:28.741Z,19.73
2022-08-21T21:36:08.852Z,19.70
2022-08-21T21:38:51.790Z,19.70
2022-08-21T21:41:30.291Z,19.75
2022-08-21T21:44:07.921Z,19.80
2022-08-21T21:46:56.513Z,19.82
2022-08-21T21:49:40.057Z,19.85
2022-08-21T21:52:30.381Z,19.84
2022-08-21T21:55:18.265Z,19.73
2022-08-21T21:58:24.745Z,19.62
2022-08-21T22:01:06.805Z,19.59
2022-08-21T22:03:45.372Z,19.59
2022-08-21T22:06:25.073Z,19.57
2022-08-21T22:09:09.343Z,19.55
2022-08-21T22:11:56.073Z,19.57
2022-08-21T22:14:33.279Z,19.63
2022-08-21T22:17:10.778Z,19.68
2022-08-21T22:19:44.221Z,19.63
2022-08-21T22:22:20.003Z,19.54
2022-08-21T22:24:54.869Z,19.53
2022-08-21T22:27:30.927Z,19.48
2022-08-21T22:30:05.241Z,19.38
2022-08-21T22:32:45.865Z,19.29
2022-08-21T22:35:23.096Z,18.96
2022-08-21T22:37:56.588Z,18.83
2022-08-21T22:40:31.582Z,18.70
2022-08-21T22:43:07.391Z,18.74
2022-08-21T22:45:57.173Z,18.83
2022-08-21T22:48:31.403Z,18.89
2022-08-21T22:51:06.825Z,18.93
2022-08-21T22:53:41.087Z,18.81
2022-08-21T22:56:26.989Z,18.66
2022-08-21T22:59:00.806Z,18.32
2022-08-21T23:01:43.125Z,18.18
2022-08-21T23:04:22.044Z,18.09
2022-08-21T23:06:58.315Z,18.20
2022-08-21T23:09:40.103Z,18.23
2022-08-21T23:12:28.161Z,18.20
2022-08-21T23:15:07.441Z,18.15
2022-08-21T23:17:49.820Z,17.99
2022-08-21T23:20:29.022Z,17.86
2022-08-21T23:23:09.502Z,17.93
2022-08-21T23:25:59.572Z,18.02
2022-08-21T23:28:44.099Z,18.05
2022-08-21T23:31:25.105Z,18.17
2022-08-21T23:34:11.660Z,18.34
2022-08-21T23:37:18.519Z,18.37
2022-08-21T23:40:13.568Z,18.25
2022-08-21T23:43:00.722Z,18.31
2022-08-21T23:45:46.083Z,18.19
2022-08-21T23:48:32.547Z,18.25
2022-08-21T23:51:11.832Z,18.35
2022-08-21T23:53:52.614Z,18.41
2022-08-21T23:56:44.743Z,18.42
2022-08-21T23:59:28.391Z,18.30
